sensor_id;sensor_type;location;lat;lon;timestamp;P1;durP1;ratioP1;P2;durP2;ratioP2
3333;SDS011;1679;50.392;8.008;2022-07-24T00:01:28;11.37;;;10.37;;
3333;SDS011;1679;50.392;8.008;2022-07-24T00:03:53;11.87;;;10.67;;
3333;SDS011;1679;50.392;8.008;2022-07-24T00:06:19;9.67;;;8.87;;
3333;SDS011;1679;50.392;8.008;2022-07-24T00:08:45;12.50;;;11.37;;
3333;SDS011;1679;50.392;8.008;2022-07-24T00:11:10;10.07;;;9.17;;
3333;SDS011;1679;50.392;8.008;2022-07-24T00:13:36;11.43;;;10.43;;
3333;SDS011;1679;50.392;8.008;2022-07-24T00:16:02;12.87;;;11.67;;
3333;SDS011;1679;50.392;8.008;2022-07-24T00:18:28;10.03;;;9.23;;
3333;SDS011;1679;50.392;8.008;2022-07-24T00:20:53;12.27;;;9.83;;
3333;SDS011;1679;50.392;8.008;2022-07-24T00:23:19;10.70;;;8.83;;
3333;SDS011;1679;50.392;8.008;2022-07-24T00:25:44;9.90;;;9.10;;
3333;SDS011;1679;50.392;8.008;2022-07-24T00:28:10;10.23;;;9.17;;
3333;SDS011;1679;50.392;8.008;2022-07-24T00:30:35;11.07;;;10.07;;
3333;SDS011;1679;50.392;8.008;2022-07-24T00:33:02;11.00;;;9.43;;
3333;SDS011;1679;50.392;8.008;2022-07-24T00:35:28;10.80;;;9.80;;
3333;SDS011;1679;50.392;8.008;2022-07-24T00:37:54;11.63;;;10.70;;
3333;SDS011;1679;50.392;8.008;2022-07-24T00:40:19;11.03;;;10.23;;
3333;SDS011;1679;50.392;8.008;2022-07-24T00:42:45;10.93;;;10.13;;
3333;SDS011;1679;50.392;8.008;2022-07-24T00:45:11;11.13;;;10.20;;
3333;SDS011;1679;50.392;8.008;2022-07-24T00:47:37;11.30;;;10.23;;
3333;SDS011;1679;50.392;8.008;2022-07-24T00:50:03;10.87;;;9.70;;
3333;SDS011;1679;50.392;8.008;2022-07-24T00:52:29;11.30;;;9.67;;
3333;SDS011;1679;50.392;8.008;2022-07-24T00:54:55;10.60;;;9.80;;
3333;SDS011;1679;50.392;8.008;2022-07-24T00:57:21;10.57;;;9.57;;
3333;SDS011;1679;50.392;8.008;2022-07-24T00:59:47;11.07;;;10.03;;
3333;SDS011;1679;50.392;8.008;2022-07-24T01:02:12;10.70;;;9.83;;
3333;SDS011;1679;50.392;8.008;2022-07-24T01:04:38;12.70;;;10.70;;
3333;SDS011;1679;50.392;8.008;2022-07-24T01:07:05;11.67;;;10.53;;
3333;SDS011;1679;50.392;8.008;2022-07-24T01:09:32;11.37;;;10.40;;
3333;SDS011;1679;50.392;8.008;2022-07-24T01:11:57;11.67;;;10.57;;
3333;SDS011;1679;50.392;8.008;2022-07-24T01:14:25;11.20;;;10.20;;
3333;SDS011;1679;50.392;8.008;2022-07-24T01:16:51;12.13;;;11.13;;
3333;SDS011;1679;50.392;8.008;2022-07-24T01:19:16;12.83;;;11.67;;
3333;SDS011;1679;50.392;8.008;2022-07-24T01:21:49;12.40;;;11.30;;
3333;SDS011;1679;50.392;8.008;2022-07-24T01:24:17;12.10;;;11.00;;
3333;SDS011;1679;50.392;8.008;2022-07-24T01:26:44;12.17;;;11.20;;
3333;SDS011;1679;50.392;8.008;2022-07-24T01:29:09;11.70;;;10.80;;
3333;SDS011;1679;50.392;8.008;2022-07-24T01:31:35;11.40;;;10.47;;
3333;SDS011;1679;50.392;8.008;2022-07-24T01:34:01;12.53;;;11.27;;
3333;SDS011;1679;50.392;8.008;2022-07-24T01:36:27;11.50;;;10.60;;
3333;SDS011;1679;50.392;8.008;2022-07-24T01:38:53;10.50;;;9.57;;
3333;SDS011;1679;50.392;8.008;2022-07-24T01:41:18;11.83;;;10.90;;
3333;SDS011;1679;50.392;8.008;2022-07-24T01:43:44;11.40;;;10.30;;
3333;SDS011;1679;50.392;8.008;2022-07-24T01:46:10;11.70;;;10.80;;
3333;SDS011;1679;50.392;8.008;2022-07-24T01:48:36;11.40;;;10.40;;
3333;SDS011;1679;50.392;8.008;2022-07-24T01:51:02;11.53;;;10.53;;
3333;SDS011;1679;50.392;8.008;2022-07-24T01:53:28;12.07;;;11.07;;
3333;SDS011;1679;50.392;8.008;2022-07-24T01:55:54;12.17;;;11.07;;
3333;SDS011;1679;50.392;8.008;2022-07-24T01:58:19;12.47;;;11.37;;
3333;SDS011;1679;50.392;8.008;2022-07-24T02:00:45;12.67;;;11.40;;
3333;SDS011;1679;50.392;8.008;2022-07-24T02:03:12;12.90;;;11.77;;
3333;SDS011;1679;50.392;8.008;2022-07-24T02:05:37;12.77;;;11.43;;
3333;SDS011;1679;50.392;8.008;2022-07-24T02:08:03;12.40;;;11.30;;
3333;SDS011;1679;50.392;8.008;2022-07-24T02:10:29;12.20;;;11.10;;
3333;SDS011;1679;50.392;8.008;2022-07-24T02:12:55;11.63;;;10.63;;
3333;SDS011;1679;50.392;8.008;2022-07-24T02:15:21;12.67;;;11.57;;
3333;SDS011;1679;50.392;8.008;2022-07-24T02:17:48;12.80;;;11.70;;
3333;SDS011;1679;50.392;8.008;2022-07-24T02:20:18;11.13;;;10.03;;
3333;SDS011;1679;50.392;8.008;2022-07-24T02:22:45;12.53;;;11.27;;
3333;SDS011;1679;50.392;8.008;2022-07-24T02:25:10;11.90;;;10.80;;
3333;SDS011;1679;50.392;8.008;2022-07-24T02:27:37;13.27;;;11.30;;
3333;SDS011;1679;50.392;8.008;2022-07-24T02:30:03;11.10;;;10.20;;
3333;SDS011;1679;50.392;8.008;2022-07-24T02:32:30;11.37;;;10.37;;
3333;SDS011;1679;50.392;8.008;2022-07-24T02:34:56;12.77;;;11.50;;
3333;SDS011;1679;50.392;8.008;2022-07-24T02:37:21;11.80;;;10.80;;
3333;SDS011;1679;50.392;8.008;2022-07-24T02:39:47;12.60;;;11.47;;
3333;SDS011;1679;50.392;8.008;2022-07-24T02:42:13;11.53;;;10.53;;
3333;SDS011;1679;50.392;8.008;2022-07-24T02:44:38;12.33;;;11.13;;
3333;SDS011;1679;50.392;8.008;2022-07-24T02:47:04;10.93;;;10.03;;
3333;SDS011;1679;50.392;8.008;2022-07-24T02:49:30;12.40;;;11.20;;
3333;SDS011;1679;50.392;8.008;2022-07-24T02:51:55;11.00;;;10.00;;
3333;SDS011;1679;50.392;8.008;2022-07-24T02:54:21;13.37;;;12.17;;
3333;SDS011;1679;50.392;8.008;2022-07-24T02:56:47;12.40;;;11.20;;
3333;SDS011;1679;50.392;8.008;2022-07-24T02:59:12;11.80;;;10.70;;
3333;SDS011;1679;50.392;8.008;2022-07-24T03:01:38;12.77;;;11.67;;
3333;SDS011;1679;50.392;8.008;2022-07-24T03:04:03;12.20;;;11.20;;
3333;SDS011;1679;50.392;8.008;2022-07-24T03:06:29;12.53;;;11.53;;
3333;SDS011;1679;50.392;8.008;2022-07-24T03:08:55;12.80;;;11.53;;
3333;SDS011;1679;50.392;8.008;2022-07-24T03:11:20;12.20;;;11.00;;
3333;SDS011;1679;50.392;8.008;2022-07-24T03:13:46;12.43;;;11.23;;
3333;SDS011;1679;50.392;8.008;2022-07-24T03:16:12;12.87;;;11.77;;
3333;SDS011;1679;50.392;8.008;2022-07-24T03:18:37;11.30;;;10.40;;
3333;SDS011;1679;50.392;8.008;2022-07-24T03:21:03;11.87;;;10.77;;
3333;SDS011;1679;50.392;8.008;2022-07-24T03:23:29;11.90;;;10.77;;
3333;SDS011;1679;50.392;8.008;2022-07-24T03:25:54;11.27;;;10.17;;
3333;SDS011;1679;50.392;8.008;2022-07-24T03:28:20;12.33;;;11.23;;
3333;SDS011;1679;50.392;8.008;2022-07-24T03:30:45;12.20;;;11.10;;
3333;SDS011;1679;50.392;8.008;2022-07-24T03:33:11;13.57;;;12.17;;
3333;SDS011;1679;50.392;8.008;2022-07-24T03:35:37;12.30;;;11.10;;
3333;SDS011;1679;50.392;8.008;2022-07-24T03:38:02;13.80;;;12.40;;
3333;SDS011;1679;50.392;8.008;2022-07-24T03:40:28;11.90;;;10.83;;
3333;SDS011;1679;50.392;8.008;2022-07-24T03:42:54;13.10;;;11.90;;
3333;SDS011;1679;50.392;8.008;2022-07-24T03:45:19;13.17;;;11.77;;
3333;SDS011;1679;50.392;8.008;2022-07-24T03:47:45;16.63;;;12.47;;
3333;SDS011;1679;50.392;8.008;2022-07-24T03:50:11;13.47;;;12.23;;
3333;SDS011;1679;50.392;8.008;2022-07-24T03:52:36;11.90;;;10.90;;
3333;SDS011;1679;50.392;8.008;2022-07-24T03:55:02;12.77;;;11.57;;
3333;SDS011;1679;50.392;8.008;2022-07-24T03:57:28;12.20;;;11.00;;
3333;SDS011;1679;50.392;8.008;2022-07-24T03:59:54;13.60;;;12.40;;
3333;SDS011;1679;50.392;8.008;2022-07-24T04:02:20;11.97;;;10.97;;
3333;SDS011;1679;50.392;8.008;2022-07-24T04:04:45;11.73;;;10.60;;
3333;SDS011;1679;50.392;8.008;2022-07-24T04:07:11;12.33;;;11.23;;
3333;SDS011;1679;50.392;8.008;2022-07-24T04:09:37;12.00;;;10.90;;
3333;SDS011;1679;50.392;8.008;2022-07-24T04:12:02;13.10;;;11.90;;
3333;SDS011;1679;50.392;8.008;2022-07-24T04:14:28;12.87;;;11.77;;
3333;SDS011;1679;50.392;8.008;2022-07-24T04:16:54;12.27;;;11.17;;
3333;SDS011;1679;50.392;8.008;2022-07-24T04:19:19;11.47;;;10.47;;
3333;SDS011;1679;50.392;8.008;2022-07-24T04:21:45;12.57;;;11.10;;
3333;SDS011;1679;50.392;8.008;2022-07-24T04:24:11;15.53;;;11.10;;
3333;SDS011;1679;50.392;8.008;2022-07-24T04:26:36;12.40;;;11.07;;
3333;SDS011;1679;50.392;8.008;2022-07-24T04:29:02;12.63;;;11.43;;
3333;SDS011;1679;50.392;8.008;2022-07-24T04:31:28;12.20;;;11.10;;
3333;SDS011;1679;50.392;8.008;2022-07-24T04:33:53;12.60;;;11.60;;
3333;SDS011;1679;50.392;8.008;2022-07-24T04:36:19;13.20;;;12.07;;
3333;SDS011;1679;50.392;8.008;2022-07-24T04:38:44;12.43;;;11.27;;
3333;SDS011;1679;50.392;8.008;2022-07-24T04:41:10;12.60;;;11.30;;
3333;SDS011;1679;50.392;8.008;2022-07-24T04:43:36;13.27;;;12.07;;
3333;SDS011;1679;50.392;8.008;2022-07-24T04:46:01;11.97;;;10.97;;
3333;SDS011;1679;50.392;8.008;2022-07-24T04:48:27;11.77;;;10.77;;
3333;SDS011;1679;50.392;8.008;2022-07-24T04:50:52;12.20;;;11.20;;
3333;SDS011;1679;50.392;8.008;2022-07-24T04:53:18;11.97;;;10.97;;
3333;SDS011;1679;50.392;8.008;2022-07-24T04:55:43;12.57;;;11.30;;
3333;SDS011;1679;50.392;8.008;2022-07-24T04:58:09;12.43;;;11.40;;
3333;SDS011;1679;50.392;8.008;2022-07-24T05:00:35;10.80;;;10.00;;
3333;SDS011;1679;50.392;8.008;2022-07-24T05:03:00;11.23;;;10.23;;
3333;SDS011;1679;50.392;8.008;2022-07-24T05:05:26;13.40;;;11.00;;
3333;SDS011;1679;50.392;8.008;2022-07-24T05:07:51;11.47;;;10.37;;
3333;SDS011;1679;50.392;8.008;2022-07-24T05:10:17;11.33;;;10.27;;
3333;SDS011;1679;50.392;8.008;2022-07-24T05:12:42;11.57;;;10.57;;
3333;SDS011;1679;50.392;8.008;2022-07-24T05:15:09;11.27;;;10.37;;
3333;SDS011;1679;50.392;8.008;2022-07-24T05:17:35;13.53;;;10.80;;
3333;SDS011;1679;50.392;8.008;2022-07-24T05:20:00;10.80;;;9.90;;
3333;SDS011;1679;50.392;8.008;2022-07-24T05:22:26;12.70;;;11.50;;
3333;SDS011;1679;50.392;8.008;2022-07-24T05:24:52;11.97;;;10.90;;
3333;SDS011;1679;50.392;8.008;2022-07-24T05:27:18;11.43;;;10.40;;
3333;SDS011;1679;50.392;8.008;2022-07-24T05:29:43;11.63;;;10.63;;
3333;SDS011;1679;50.392;8.008;2022-07-24T05:32:09;12.10;;;11.00;;
3333;SDS011;1679;50.392;8.008;2022-07-24T05:34:35;10.80;;;9.90;;
3333;SDS011;1679;50.392;8.008;2022-07-24T05:37:00;10.47;;;9.50;;
3333;SDS011;1679;50.392;8.008;2022-07-24T05:39:26;11.20;;;10.10;;
3333;SDS011;1679;50.392;8.008;2022-07-24T05:41:51;11.03;;;10.00;;
3333;SDS011;1679;50.392;8.008;2022-07-24T05:44:17;13.53;;;10.40;;
3333;SDS011;1679;50.392;8.008;2022-07-24T05:46:42;10.80;;;9.90;;
3333;SDS011;1679;50.392;8.008;2022-07-24T05:49:08;11.23;;;10.03;;
3333;SDS011;1679;50.392;8.008;2022-07-24T05:51:34;11.40;;;10.50;;
3333;SDS011;1679;50.392;8.008;2022-07-24T05:53:59;10.47;;;9.70;;
3333;SDS011;1679;50.392;8.008;2022-07-24T05:56:25;11.20;;;10.27;;
3333;SDS011;1679;50.392;8.008;2022-07-24T05:58:50;12.77;;;11.70;;
3333;SDS011;1679;50.392;8.008;2022-07-24T06:01:16;10.90;;;10.10;;
3333;SDS011;1679;50.392;8.008;2022-07-24T06:03:41;12.47;;;11.27;;
3333;SDS011;1679;50.392;8.008;2022-07-24T06:06:07;11.10;;;10.10;;
3333;SDS011;1679;50.392;8.008;2022-07-24T06:08:32;12.20;;;11.00;;
3333;SDS011;1679;50.392;8.008;2022-07-24T06:10:58;9.83;;;9.03;;
3333;SDS011;1679;50.392;8.008;2022-07-24T06:13:23;10.80;;;9.80;;
3333;SDS011;1679;50.392;8.008;2022-07-24T06:15:49;10.50;;;9.70;;
3333;SDS011;1679;50.392;8.008;2022-07-24T06:18:15;11.77;;;10.60;;
3333;SDS011;1679;50.392;8.008;2022-07-24T06:20:40;9.27;;;8.53;;
3333;SDS011;1679;50.392;8.008;2022-07-24T06:23:06;10.37;;;9.47;;
3333;SDS011;1679;50.392;8.008;2022-07-24T06:25:32;9.80;;;8.93;;
3333;SDS011;1679;50.392;8.008;2022-07-24T06:27:57;9.90;;;9.10;;
3333;SDS011;1679;50.392;8.008;2022-07-24T06:30:23;10.17;;;9.23;;
3333;SDS011;1679;50.392;8.008;2022-07-24T06:32:52;10.33;;;9.53;;
3333;SDS011;1679;50.392;8.008;2022-07-24T06:35:19;10.23;;;9.33;;
3333;SDS011;1679;50.392;8.008;2022-07-24T06:37:45;10.10;;;9.27;;
3333;SDS011;1679;50.392;8.008;2022-07-24T06:40:10;9.60;;;8.70;;
3333;SDS011;1679;50.392;8.008;2022-07-24T06:42:36;10.33;;;9.43;;
3333;SDS011;1679;50.392;8.008;2022-07-24T06:45:02;9.90;;;9.20;;
3333;SDS011;1679;50.392;8.008;2022-07-24T06:47:28;9.03;;;8.23;;
3333;SDS011;1679;50.392;8.008;2022-07-24T06:49:54;9.33;;;8.53;;
3333;SDS011;1679;50.392;8.008;2022-07-24T06:52:20;9.20;;;8.47;;
3333;SDS011;1679;50.392;8.008;2022-07-24T06:54:45;8.17;;;7.57;;
3333;SDS011;1679;50.392;8.008;2022-07-24T06:57:11;8.57;;;7.70;;
3333;SDS011;1679;50.392;8.008;2022-07-24T06:59:38;9.67;;;7.67;;
3333;SDS011;1679;50.392;8.008;2022-07-24T07:02:05;8.90;;;8.20;;
3333;SDS011;1679;50.392;8.008;2022-07-24T07:04:31;7.50;;;7.00;;
3333;SDS011;1679;50.392;8.008;2022-07-24T07:06:56;7.97;;;7.37;;
3333;SDS011;1679;50.392;8.008;2022-07-24T07:09:22;8.97;;;8.20;;
3333;SDS011;1679;50.392;8.008;2022-07-24T07:11:48;7.93;;;7.33;;
3333;SDS011;1679;50.392;8.008;2022-07-24T07:14:13;7.13;;;6.67;;
3333;SDS011;1679;50.392;8.008;2022-07-24T07:16:39;7.57;;;6.87;;
3333;SDS011;1679;50.392;8.008;2022-07-24T07:19:04;8.03;;;7.43;;
3333;SDS011;1679;50.392;8.008;2022-07-24T07:21:30;8.40;;;7.60;;
3333;SDS011;1679;50.392;8.008;2022-07-24T07:23:56;7.80;;;6.77;;
3333;SDS011;1679;50.392;8.008;2022-07-24T07:26:21;7.10;;;6.60;;
3333;SDS011;1679;50.392;8.008;2022-07-24T07:28:47;7.43;;;6.93;;
3333;SDS011;1679;50.392;8.008;2022-07-24T07:31:12;7.27;;;6.57;;
3333;SDS011;1679;50.392;8.008;2022-07-24T07:33:38;7.20;;;6.70;;
3333;SDS011;1679;50.392;8.008;2022-07-24T07:36:04;6.63;;;6.20;;
3333;SDS011;1679;50.392;8.008;2022-07-24T07:38:29;11.53;;;7.57;;
3333;SDS011;1679;50.392;8.008;2022-07-24T07:40:55;7.30;;;6.30;;
3333;SDS011;1679;50.392;8.008;2022-07-24T07:43:21;6.77;;;6.27;;
3333;SDS011;1679;50.392;8.008;2022-07-24T07:45:46;6.57;;;6.17;;
3333;SDS011;1679;50.392;8.008;2022-07-24T07:48:12;7.10;;;6.70;;
3333;SDS011;1679;50.392;8.008;2022-07-24T07:50:37;7.30;;;6.70;;
3333;SDS011;1679;50.392;8.008;2022-07-24T07:53:03;6.87;;;6.37;;
3333;SDS011;1679;50.392;8.008;2022-07-24T07:55:29;6.63;;;6.13;;
3333;SDS011;1679;50.392;8.008;2022-07-24T07:57:54;6.30;;;6.00;;
3333;SDS011;1679;50.392;8.008;2022-07-24T08:00:21;6.87;;;6.40;;
3333;SDS011;1679;50.392;8.008;2022-07-24T08:02:47;5.63;;;5.33;;
3333;SDS011;1679;50.392;8.008;2022-07-24T08:05:13;6.43;;;5.83;;
3333;SDS011;1679;50.392;8.008;2022-07-24T08:07:38;6.90;;;6.40;;
3333;SDS011;1679;50.392;8.008;2022-07-24T08:10:04;5.80;;;5.40;;
3333;SDS011;1679;50.392;8.008;2022-07-24T08:12:31;6.90;;;6.40;;
3333;SDS011;1679;50.392;8.008;2022-07-24T08:14:56;6.93;;;6.43;;
3333;SDS011;1679;50.392;8.008;2022-07-24T08:17:22;6.27;;;5.70;;
3333;SDS011;1679;50.392;8.008;2022-07-24T08:19:47;6.90;;;6.30;;
3333;SDS011;1679;50.392;8.008;2022-07-24T08:22:13;6.40;;;5.90;;
3333;SDS011;1679;50.392;8.008;2022-07-24T08:24:39;5.70;;;5.20;;
3333;SDS011;1679;50.392;8.008;2022-07-24T08:27:05;6.37;;;6.03;;
3333;SDS011;1679;50.392;8.008;2022-07-24T08:29:30;5.73;;;5.43;;
3333;SDS011;1679;50.392;8.008;2022-07-24T08:31:56;6.67;;;5.93;;
3333;SDS011;1679;50.392;8.008;2022-07-24T08:34:22;6.67;;;6.17;;
3333;SDS011;1679;50.392;8.008;2022-07-24T08:36:48;5.85;;;5.55;;
3333;SDS011;1679;50.392;8.008;2022-07-24T08:39:14;5.78;;;5.43;;
3333;SDS011;1679;50.392;8.008;2022-07-24T08:41:40;5.90;;;5.53;;
3333;SDS011;1679;50.392;8.008;2022-07-24T08:44:07;5.75;;;5.43;;
3333;SDS011;1679;50.392;8.008;2022-07-24T08:46:35;6.03;;;5.68;;
3333;SDS011;1679;50.392;8.008;2022-07-24T08:49:03;6.47;;;5.70;;
3333;SDS011;1679;50.392;8.008;2022-07-24T08:51:39;14.80;;;5.90;;
3333;SDS011;1679;50.392;8.008;2022-07-24T08:54:07;7.10;;;6.60;;
3333;SDS011;1679;50.392;8.008;2022-07-24T08:56:33;6.80;;;6.17;;
3333;SDS011;1679;50.392;8.008;2022-07-24T08:59:02;7.97;;;5.63;;
3333;SDS011;1679;50.392;8.008;2022-07-24T09:01:28;6.50;;;5.90;;
3333;SDS011;1679;50.392;8.008;2022-07-24T09:03:54;7.03;;;6.38;;
3333;SDS011;1679;50.392;8.008;2022-07-24T09:06:20;5.80;;;5.38;;
3333;SDS011;1679;50.392;8.008;2022-07-24T09:09:02;5.90;;;5.35;;
3333;SDS011;1679;50.392;8.008;2022-07-24T09:11:28;6.22;;;5.82;;
3333;SDS011;1679;50.392;8.008;2022-07-24T09:13:59;6.30;;;5.70;;
3333;SDS011;1679;50.392;8.008;2022-07-24T09:16:44;7.27;;;6.80;;
3333;SDS011;1679;50.392;8.008;2022-07-24T09:19:10;6.37;;;5.97;;
3333;SDS011;1679;50.392;8.008;2022-07-24T09:21:38;5.82;;;5.43;;
3333;SDS011;1679;50.392;8.008;2022-07-24T09:24:18;6.17;;;5.87;;
3333;SDS011;1679;50.392;8.008;2022-07-24T09:29:22;5.70;;;5.30;;
3333;SDS011;1679;50.392;8.008;2022-07-24T09:31:51;5.53;;;5.13;;
3333;SDS011;1679;50.392;8.008;2022-07-24T09:34:17;6.20;;;5.70;;
3333;SDS011;1679;50.392;8.008;2022-07-24T09:36:50;5.95;;;5.35;;
3333;SDS011;1679;50.392;8.008;2022-07-24T09:39:30;5.53;;;5.23;;
3333;SDS011;1679;50.392;8.008;2022-07-24T09:41:58;5.95;;;5.55;;
3333;SDS011;1679;50.392;8.008;2022-07-24T09:44:24;6.05;;;5.63;;
3333;SDS011;1679;50.392;8.008;2022-07-24T09:46:57;5.63;;;5.22;;
3333;SDS011;1679;50.392;8.008;2022-07-24T09:49:28;7.00;;;6.40;;
3333;SDS011;1679;50.392;8.008;2022-07-24T09:52:06;6.18;;;5.85;;
3333;SDS011;1679;50.392;8.008;2022-07-24T09:54:42;6.10;;;5.60;;
3333;SDS011;1679;50.392;8.008;2022-07-24T09:57:23;6.50;;;6.10;;
3333;SDS011;1679;50.392;8.008;2022-07-24T09:59:51;5.43;;;5.22;;
3333;SDS011;1679;50.392;8.008;2022-07-24T10:02:20;5.57;;;5.28;;
3333;SDS011;1679;50.392;8.008;2022-07-24T10:04:48;7.13;;;6.53;;
3333;SDS011;1679;50.392;8.008;2022-07-24T10:07:16;5.70;;;5.40;;
3333;SDS011;1679;50.392;8.008;2022-07-24T10:09:44;6.53;;;5.53;;
3333;SDS011;1679;50.392;8.008;2022-07-24T10:12:18;6.20;;;5.80;;
3333;SDS011;1679;50.392;8.008;2022-07-24T10:14:47;6.30;;;5.90;;
3333;SDS011;1679;50.392;8.008;2022-07-24T10:17:14;5.90;;;5.60;;
3333;SDS011;1679;50.392;8.008;2022-07-24T10:19:42;6.53;;;6.10;;
3333;SDS011;1679;50.392;8.008;2022-07-24T10:22:11;6.40;;;6.00;;
3333;SDS011;1679;50.392;8.008;2022-07-24T10:24:47;6.10;;;5.70;;
3333;SDS011;1679;50.392;8.008;2022-07-24T10:27:32;6.47;;;5.97;;
3333;SDS011;1679;50.392;8.008;2022-07-24T10:30:00;6.93;;;6.43;;
3333;SDS011;1679;50.392;8.008;2022-07-24T10:32:30;6.75;;;6.32;;
3333;SDS011;1679;50.392;8.008;2022-07-24T10:37:52;7.45;;;6.85;;
3333;SDS011;1679;50.392;8.008;2022-07-24T10:43:14;6.32;;;6.00;;
3333;SDS011;1679;50.392;8.008;2022-07-24T10:59:31;6.10;;;5.60;;
3333;SDS011;1679;50.392;8.008;2022-07-24T11:01:37;7.00;;;6.50;;
3333;SDS011;1679;50.392;8.008;2022-07-24T11:06:53;6.97;;;6.38;;
3333;SDS011;1679;50.392;8.008;2022-07-24T11:09:36;6.55;;;6.15;;
3333;SDS011;1679;50.392;8.008;2022-07-24T11:12:26;7.32;;;6.38;;
3333;SDS011;1679;50.392;8.008;2022-07-24T11:14:55;6.13;;;5.82;;
3333;SDS011;1679;50.392;8.008;2022-07-24T11:17:43;6.53;;;6.07;;
3333;SDS011;1679;50.392;8.008;2022-07-24T11:20:11;7.25;;;6.70;;
3333;SDS011;1679;50.392;8.008;2022-07-24T11:25:20;7.32;;;6.82;;
3333;SDS011;1679;50.392;8.008;2022-07-24T11:27:56;7.50;;;7.00;;
3333;SDS011;1679;50.392;8.008;2022-07-24T11:30:40;6.60;;;6.20;;
3333;SDS011;1679;50.392;8.008;2022-07-24T11:33:12;6.70;;;6.30;;
3333;SDS011;1679;50.392;8.008;2022-07-24T11:35:45;6.75;;;6.18;;
3333;SDS011;1679;50.392;8.008;2022-07-24T11:38:11;7.20;;;6.80;;
3333;SDS011;1679;50.392;8.008;2022-07-24T11:40:36;6.68;;;6.18;;
3333;SDS011;1679;50.392;8.008;2022-07-24T11:43:06;7.13;;;6.65;;
3333;SDS011;1679;50.392;8.008;2022-07-24T11:45:34;6.82;;;6.43;;
3333;SDS011;1679;50.392;8.008;2022-07-24T11:48:00;7.13;;;6.50;;
3333;SDS011;1679;50.392;8.008;2022-07-24T11:50:26;7.05;;;6.45;;
3333;SDS011;1679;50.392;8.008;2022-07-24T11:52:52;6.45;;;6.03;;
3333;SDS011;1679;50.392;8.008;2022-07-24T11:55:19;6.68;;;6.18;;
3333;SDS011;1679;50.392;8.008;2022-07-24T11:57:48;7.65;;;7.13;;
3333;SDS011;1679;50.392;8.008;2022-07-24T12:00:16;7.00;;;6.50;;
3333;SDS011;1679;50.392;8.008;2022-07-24T12:02:50;6.53;;;6.13;;
3333;SDS011;1679;50.392;8.008;2022-07-24T12:05:24;6.60;;;6.25;;
3333;SDS011;1679;50.392;8.008;2022-07-24T12:07:55;7.75;;;7.25;;
3333;SDS011;1679;50.392;8.008;2022-07-24T12:10:23;8.20;;;6.50;;
3333;SDS011;1679;50.392;8.008;2022-07-24T12:12:50;7.07;;;6.68;;
3333;SDS011;1679;50.392;8.008;2022-07-24T12:15:18;6.40;;;6.10;;
3333;SDS011;1679;50.392;8.008;2022-07-24T12:18:02;6.13;;;5.82;;
3333;SDS011;1679;50.392;8.008;2022-07-24T12:20:29;7.28;;;6.78;;
3333;SDS011;1679;50.392;8.008;2022-07-24T12:22:57;6.65;;;6.18;;
3333;SDS011;1679;50.392;8.008;2022-07-24T12:25:24;7.47;;;6.97;;
3333;SDS011;1679;50.392;8.008;2022-07-24T12:27:58;7.27;;;6.77;;
3333;SDS011;1679;50.392;8.008;2022-07-24T12:30:36;7.50;;;6.90;;
3333;SDS011;1679;50.392;8.008;2022-07-24T12:35:55;7.97;;;7.37;;
3333;SDS011;1679;50.392;8.008;2022-07-24T12:41:15;7.32;;;6.65;;
3333;SDS011;1679;50.392;8.008;2022-07-24T12:43:49;7.03;;;6.45;;
3333;SDS011;1679;50.392;8.008;2022-07-24T12:46:15;6.38;;;5.97;;
3333;SDS011;1679;50.392;8.008;2022-07-24T12:54:10;6.72;;;6.32;;
3333;SDS011;1679;50.392;8.008;2022-07-24T12:56:55;6.80;;;6.40;;
3333;SDS011;1679;50.392;8.008;2022-07-24T13:01:55;7.40;;;6.90;;
3333;SDS011;1679;50.392;8.008;2022-07-24T13:04:23;7.93;;;7.50;;
3333;SDS011;1679;50.392;8.008;2022-07-24T13:06:51;8.05;;;7.45;;
3333;SDS011;1679;50.392;8.008;2022-07-24T13:09:19;7.05;;;6.45;;
3333;SDS011;1679;50.392;8.008;2022-07-24T13:11:46;7.03;;;6.65;;
3333;SDS011;1679;50.392;8.008;2022-07-24T13:14:13;7.60;;;7.15;;
3333;SDS011;1679;50.392;8.008;2022-07-24T13:16:41;7.30;;;6.90;;
3333;SDS011;1679;50.392;8.008;2022-07-24T13:19:08;7.03;;;6.60;;
3333;SDS011;1679;50.392;8.008;2022-07-24T13:21:35;8.13;;;6.38;;
3333;SDS011;1679;50.392;8.008;2022-07-24T13:24:02;7.22;;;6.68;;
3333;SDS011;1679;50.392;8.008;2022-07-24T13:26:28;7.15;;;6.75;;
3333;SDS011;1679;50.392;8.008;2022-07-24T13:28:54;7.32;;;6.75;;
3333;SDS011;1679;50.392;8.008;2022-07-24T13:31:20;6.72;;;6.35;;
3333;SDS011;1679;50.392;8.008;2022-07-24T13:33:46;6.68;;;6.28;;
3333;SDS011;1679;50.392;8.008;2022-07-24T13:36:13;6.47;;;6.13;;
3333;SDS011;1679;50.392;8.008;2022-07-24T13:38:39;7.60;;;6.93;;
3333;SDS011;1679;50.392;8.008;2022-07-24T13:41:05;7.03;;;6.63;;
3333;SDS011;1679;50.392;8.008;2022-07-24T13:43:30;7.13;;;6.65;;
3333;SDS011;1679;50.392;8.008;2022-07-24T13:45:56;6.93;;;6.53;;
3333;SDS011;1679;50.392;8.008;2022-07-24T13:48:22;7.38;;;6.88;;
3333;SDS011;1679;50.392;8.008;2022-07-24T13:50:47;7.43;;;6.93;;
3333;SDS011;1679;50.392;8.008;2022-07-24T13:53:13;8.25;;;7.63;;
3333;SDS011;1679;50.392;8.008;2022-07-24T13:55:39;7.20;;;6.70;;
3333;SDS011;1679;50.392;8.008;2022-07-24T13:58:05;7.35;;;6.95;;
3333;SDS011;1679;50.392;8.008;2022-07-24T14:00:30;7.45;;;7.05;;
3333;SDS011;1679;50.392;8.008;2022-07-24T14:02:56;7.93;;;7.43;;
3333;SDS011;1679;50.392;8.008;2022-07-24T14:05:22;7.65;;;7.10;;
3333;SDS011;1679;50.392;8.008;2022-07-24T14:07:48;7.65;;;6.93;;
3333;SDS011;1679;50.392;8.008;2022-07-24T14:10:14;7.45;;;6.95;;
3333;SDS011;1679;50.392;8.008;2022-07-24T14:12:40;8.30;;;7.60;;
3333;SDS011;1679;50.392;8.008;2022-07-24T14:15:05;7.28;;;6.78;;
3333;SDS011;1679;50.392;8.008;2022-07-24T14:17:33;7.63;;;7.13;;
3333;SDS011;1679;50.392;8.008;2022-07-24T14:20:00;7.88;;;7.15;;
3333;SDS011;1679;50.392;8.008;2022-07-24T14:22:25;7.57;;;6.88;;
3333;SDS011;1679;50.392;8.008;2022-07-24T14:24:51;8.38;;;7.63;;
3333;SDS011;1679;50.392;8.008;2022-07-24T14:27:17;6.97;;;6.57;;
3333;SDS011;1679;50.392;8.008;2022-07-24T14:29:43;9.07;;;6.43;;
3333;SDS011;1679;50.392;8.008;2022-07-24T14:32:08;7.03;;;6.53;;
3333;SDS011;1679;50.392;8.008;2022-07-24T14:34:34;7.65;;;7.25;;
3333;SDS011;1679;50.392;8.008;2022-07-24T14:37:00;7.20;;;6.60;;
3333;SDS011;1679;50.392;8.008;2022-07-24T14:39:25;7.33;;;6.63;;
3333;SDS011;1679;50.392;8.008;2022-07-24T14:41:53;9.02;;;7.07;;
3333;SDS011;1679;50.392;8.008;2022-07-24T14:44:19;7.18;;;6.68;;
3333;SDS011;1679;50.392;8.008;2022-07-24T14:46:44;13.68;;;7.03;;
3333;SDS011;1679;50.392;8.008;2022-07-24T14:49:10;7.85;;;7.32;;
3333;SDS011;1679;50.392;8.008;2022-07-24T14:51:36;6.95;;;6.60;;
3333;SDS011;1679;50.392;8.008;2022-07-24T14:54:02;6.45;;;6.13;;
3333;SDS011;1679;50.392;8.008;2022-07-24T14:56:28;7.18;;;6.60;;
3333;SDS011;1679;50.392;8.008;2022-07-24T14:58:54;7.72;;;6.85;;
3333;SDS011;1679;50.392;8.008;2022-07-24T15:01:19;7.38;;;6.97;;
3333;SDS011;1679;50.392;8.008;2022-07-24T15:03:45;6.93;;;6.53;;
3333;SDS011;1679;50.392;8.008;2022-07-24T15:06:11;8.45;;;7.28;;
3333;SDS011;1679;50.392;8.008;2022-07-24T15:08:36;6.93;;;6.53;;
3333;SDS011;1679;50.392;8.008;2022-07-24T15:11:02;7.70;;;7.20;;
3333;SDS011;1679;50.392;8.008;2022-07-24T15:13:27;7.88;;;7.38;;
3333;SDS011;1679;50.392;8.008;2022-07-24T15:15:53;7.32;;;6.93;;
3333;SDS011;1679;50.392;8.008;2022-07-24T15:18:20;8.18;;;7.35;;
3333;SDS011;1679;50.392;8.008;2022-07-24T15:20:46;8.20;;;7.63;;
3333;SDS011;1679;50.392;8.008;2022-07-24T15:23:12;7.10;;;6.60;;
3333;SDS011;1679;50.392;8.008;2022-07-24T15:25:38;7.78;;;7.18;;
3333;SDS011;1679;50.392;8.008;2022-07-24T15:28:03;7.97;;;7.40;;
3333;SDS011;1679;50.392;8.008;2022-07-24T15:30:30;7.57;;;6.97;;
3333;SDS011;1679;50.392;8.008;2022-07-24T15:32:56;7.60;;;7.00;;
3333;SDS011;1679;50.392;8.008;2022-07-24T15:35:21;7.78;;;7.28;;
3333;SDS011;1679;50.392;8.008;2022-07-24T15:37:47;7.95;;;7.35;;
3333;SDS011;1679;50.392;8.008;2022-07-24T15:40:13;7.78;;;7.10;;
3333;SDS011;1679;50.392;8.008;2022-07-24T15:42:38;7.68;;;7.00;;
3333;SDS011;1679;50.392;8.008;2022-07-24T15:45:04;11.27;;;7.60;;